Time;durP1;ratioP1;P1;durP2;ratioP2;P2;SDS_P1;SDS_P2;PMS_P1;PMS_P2;Temp;Humidity;BMP_temperature;BMP_pressure;BME280_temperature;BME280_humidity;BME280_pressure;Samples;Min_cycle;Max_cycle;Signal;HPM_P1;HPM_P2
2021/12/19 00:00:46;;;;;;;;;45.67;38.33;;;;;6.39;100.00;103147.56;5022354;28;44803;-82
2021/12/19 00:08:50;;;;;;;;;42.33;35.67;;;;;6.37;100.00;103142.28;5017950;28;44748;-81
2021/12/19 00:11:18;;;;;;;;;55.33;33.33;;;;;6.33;100.00;103132.66;5017983;28;45293;-80
2021/12/19 00:13:44;;;;;;;;;43.33;37.00;;;;;6.34;100.00;103134.44;5018161;28;45000;-82
2021/12/19 00:16:10;;;;;;;;;47.00;36.33;;;;;6.33;100.00;103135.28;5017718;28;44774;-82
2021/12/19 00:18:36;;;;;;;;;50.00;37.33;;;;;6.29;100.00;103130.09;5017579;28;45380;-82
2021/12/19 00:21:03;;;;;;;;;38.33;31.67;;;;;6.30;100.00;103135.34;5018227;28;44756;-81
2021/12/19 00:23:29;;;;;;;;;42.67;35.67;;;;;6.27;100.00;103123.94;5017961;28;45384;-81
2021/12/19 00:25:54;;;;;;;;;53.33;39.67;;;;;6.26;100.00;103136.25;5018075;28;45471;-81
2021/12/19 00:28:20;;;;;;;;;45.00;38.67;;;;;6.22;100.00;103116.06;5016677;28;45167;-81
2021/12/19 00:30:46;;;;;;;;;43.33;35.00;;;;;6.18;100.00;103119.63;5016766;28;45225;-80
2021/12/19 00:33:11;;;;;;;;;43.00;39.00;;;;;6.16;100.00;103106.44;5017306;28;45132;-81
2021/12/19 00:35:37;;;;;;;;;48.33;41.67;;;;;6.11;100.00;103116.19;5018096;28;44779;-80
2021/12/19 00:38:03;;;;;;;;;41.67;33.00;;;;;6.09;100.00;103117.06;5019514;28;44756;-80
2021/12/19 00:40:28;;;;;;;;;36.00;33.33;;;;;6.08;100.00;103121.47;5024686;28;44840;-81
2021/12/19 00:43:03;;;;;;;;;47.33;35.67;;;;;6.10;100.00;103110.94;5026282;28;45182;-81
2021/12/19 00:45:33;;;;;;;;;46.33;36.33;;;;;6.08;100.00;103108.28;5017523;28;45415;-81
2021/12/19 00:48:01;;;;;;;;;28.33;18.33;;;;;6.02;100.00;103111.00;5017200;28;45395;-82
2021/12/19 00:50:28;;;;;;;;;20.67;18.67;;;;;6.02;100.00;103111.00;5017142;28;45296;-80
2021/12/19 00:52:54;;;;;;;;;38.67;34.00;;;;;6.03;100.00;103099.53;5017020;28;45726;-81
2021/12/19 00:55:23;;;;;;;;;52.00;37.67;;;;;6.02;100.00;103108.34;5022751;28;44722;-81
2021/12/19 00:57:50;;;;;;;;;47.00;35.67;;;;;5.96;100.00;103097.00;5024385;28;45416;-80
2021/12/19 01:00:19;;;;;;;;;42.00;33.67;;;;;5.98;100.00;103111.91;5021596;28;44759;-80
2021/12/19 01:02:45;;;;;;;;;42.33;31.00;;;;;5.97;100.00;103099.59;5017283;28;45454;-80
2021/12/19 01:05:10;;;;;;;;;34.67;27.33;;;;;5.95;100.00;103105.78;5017351;28;44799;-81
2021/12/19 01:07:36;;;;;;;;;42.00;35.67;;;;;5.93;100.00;103097.88;5017095;28;45336;-79
2021/12/19 01:10:05;;;;;;;;;42.33;34.67;;;;;5.95;100.00;103103.13;5017383;28;45321;-82
2021/12/19 01:12:31;;;;;;;;;47.67;36.67;;;;;5.97;100.00;103096.97;5016788;28;45159;-82
2021/12/19 01:14:57;;;;;;;;;49.00;36.00;;;;;6.02;100.00;103097.78;5015744;28;44784;-82
2021/12/19 01:17:23;;;;;;;;;41.33;34.67;;;;;5.98;100.00;103096.06;5016622;28;44801;-81
2021/12/19 01:19:48;;;;;;;;;46.00;32.67;;;;;5.95;100.00;103090.84;5017854;28;44909;-82
2021/12/19 01:22:14;;;;;;;;;41.00;36.33;;;;;5.98;100.00;103095.19;5017702;28;45586;-81
2021/12/19 01:24:39;;;;;;;;;40.00;34.00;;;;;5.95;100.00;103093.47;5024869;28;45432;-82
2021/12/19 01:27:07;;;;;;;;;40.00;33.33;;;;;5.95;100.00;103095.22;5021562;28;45542;-83
2021/12/19 01:29:33;;;;;;;;;39.00;30.00;;;;;5.93;100.00;103095.25;5016950;28;44849;-82
2021/12/19 01:31:58;;;;;;;;;37.00;29.67;;;;;5.92;100.00;103086.47;5015221;28;45317;-81
2021/12/19 01:34:24;;;;;;;;;56.33;41.67;;;;;5.97;100.00;103083.78;5015136;28;45306;-81
2021/12/19 01:36:50;;;;;;;;;43.67;36.00;;;;;5.94;100.00;103086.44;5016704;28;45372;-81
2021/12/19 01:39:16;;;;;;;;;39.33;29.67;;;;;5.90;100.00;103088.22;5015239;28;44794;-80
2021/12/19 01:41:49;;;;;;;;;50.33;37.00;;;;;5.89;100.00;103093.47;5014939;28;45308;-81
2021/12/19 01:44:15;;;;;;;;;32.33;32.00;;;;;5.86;100.00;103089.13;5016034;28;44820;-82
2021/12/19 01:46:42;;;;;;;;;38.67;33.67;;;;;5.85;100.00;103095.31;5016186;28;45403;-82
2021/12/19 01:49:08;;;;;;;;;53.33;38.00;;;;;5.86;100.00;103098.81;5016453;28;44766;-81
2021/12/19 01:51:33;;;;;;;;;29.00;20.67;;;;;5.83;100.00;103091.78;5015949;28;45130;-81
2021/12/19 01:53:59;;;;;;;;;33.33;24.67;;;;;5.87;100.00;103090.00;5016296;28;45438;-82
2021/12/19 01:56:24;;;;;;;;;47.00;36.67;;;;;5.93;100.00;103079.41;5020449;28;44936;-80
2021/12/19 01:58:49;;;;;;;;;39.33;34.33;;;;;5.97;100.00;103088.19;5022051;28;45320;-81
2021/12/19 02:01:15;;;;;;;;;45.00;34.33;;;;;6.00;100.00;103081.13;5020785;28;45384;-80
2021/12/19 02:03:40;;;;;;;;;34.67;25.33;;;;;6.03;100.00;103078.44;5017927;28;45399;-81
2021/12/19 02:06:06;;;;;;;;;38.00;21.33;;;;;6.04;100.00;103081.94;5019856;28;44887;-80
2021/12/19 02:08:33;;;;;;;;;39.67;33.67;;;;;6.05;100.00;103075.81;5025016;28;45312;-81
2021/12/19 02:10:58;;;;;;;;;35.67;26.67;;;;;6.04;100.00;103077.53;5021090;28;45441;-80
2021/12/19 02:13:23;;;;;;;;;36.67;32.33;;;;;6.09;100.00;103077.47;5015813;28;44772;-81
2021/12/19 02:15:49;;;;;;;;;37.33;28.33;;;;;6.08;100.00;103068.69;5016352;28;45225;-80
2021/12/19 02:18:17;;;;;;;;;27.33;21.00;;;;;6.09;100.00;103062.56;5016253;28;44730;-82
2021/12/19 02:20:50;;;;;;;;;34.00;28.00;;;;;6.08;100.00;103065.19;5015735;28;46079;-80
2021/12/19 02:23:15;;;;;;;;;34.00;19.33;;;;;6.04;100.00;103058.19;5032084;28;44846;-80
2021/12/19 02:25:41;;;;;;;;;14.67;13.00;;;;;6.00;100.00;103062.66;5015862;28;44829;-79
2021/12/19 02:28:07;;;;;;;;;34.33;27.00;;;;;5.98;100.00;103047.72;5014624;28;45397;-79
2021/12/19 02:30:33;;;;;;;;;32.33;29.33;;;;;5.93;100.00;103064.47;5015558;28;46445;-79
2021/12/19 02:32:59;;;;;;;;;27.50;16.25;;;;;5.91;100.00;103044.25;5015801;28;44854;-80
2021/12/19 02:35:29;;;;;;;;;24.75;19.75;;;;;5.89;100.00;103046.00;5016988;28;45364;-79
2021/12/19 02:48:48;;;;;;;;;41.67;34.33;;;;;5.82;100.00;103046.97;5037506;28;44786;-79
2021/12/19 02:51:14;;;;;;;;;42.00;36.00;;;;;5.77;100.00;103046.16;5045298;28;45322;-79
2021/12/19 02:53:42;;;;;;;;;26.67;19.67;;;;;5.79;100.00;103044.34;5046258;28;44914;-79
2021/12/19 02:56:10;;;;;;;;;31.67;24.00;;;;;5.78;100.00;103048.75;5039613;28;44798;-79
2021/12/19 02:58:38;;;;;;;;;36.33;29.00;;;;;5.76;100.00;103058.47;5039077;28;44798;-79
2021/12/19 03:01:07;;;;;;;;;34.33;28.67;;;;;5.73;100.00;103036.50;5041297;28;45037;-78
2021/12/19 03:03:33;;;;;;;;;29.25;21.50;;;;;5.68;100.00;103041.81;5039502;28;44786;-79
2021/12/19 03:05:58;;;;;;;;;23.33;19.67;;;;;5.71;100.00;103030.38;5039485;28;45250;-79
2021/12/19 03:08:24;;;;;;;;;35.67;34.67;;;;;5.72;100.00;103033.00;5038972;28;44939;-78
2021/12/19 03:18:31;;;;;;;;;14.33;11.67;;;;;5.78;100.00;103025.03;5039242;28;44776;-80
2021/12/19 03:20:57;;;;;;;;;34.67;23.67;;;;;5.74;100.00;103025.06;5038807;28;45430;-80
2021/12/19 03:23:23;;;;;;;;;27.25;24.75;;;;;5.73;100.00;103024.19;5040644;28;45348;-80
2021/12/19 03:25:48;;;;;;;;;33.00;24.67;;;;;5.74;100.00;103019.78;5038663;28;44830;-79
2021/12/19 03:28:14;;;;;;;;;31.67;20.33;;;;;5.75;100.00;103018.88;5039106;28;45479;-80
2021/12/19 03:30:42;;;;;;;;;33.67;28.00;;;;;5.77;100.00;103017.13;5038957;28;45335;-80
2021/12/19 03:33:10;;;;;;;;;39.33;24.33;;;;;5.77;100.00;103015.38;5041568;28;44742;-79
2021/12/19 03:35:37;;;;;;;;;36.00;28.67;;;;;5.80;100.00;103020.63;5045951;28;44773;-79
2021/12/19 03:38:07;;;;;;;;;32.33;27.33;;;;;5.81;100.00;103013.59;5040491;28;44796;-80
2021/12/19 03:40:36;;;;;;;;;29.00;25.00;;;;;5.82;100.00;103015.31;5037934;28;45375;-79
2021/12/19 03:43:10;;;;;;;;;34.00;26.00;;;;;5.82;100.00;103018.81;5030713;28;45359;-79
2021/12/19 03:45:37;;;;;;;;;29.33;25.00;;;;;5.79;100.00;103021.47;5016933;28;45292;-79
2021/12/19 03:48:04;;;;;;;;;34.67;29.00;;;;;5.76;100.00;103018.91;5017927;28;45432;-79
2021/12/19 03:50:32;;;;;;;;;37.33;29.67;;;;;5.77;100.00;103015.38;5017885;28;45210;-80
2021/12/19 03:52:59;;;;;;;;;29.50;22.25;;;;;5.76;100.00;103031.22;5018049;28;44835;-79
2021/12/19 03:55:26;;;;;;;;;14.33;12.00;;;;;5.74;100.00;103025.94;5017655;28;45502;-79
2021/12/19 03:57:52;;;;;;;;;29.67;26.00;;;;;5.68;100.00;103028.63;5017705;28;45367;-79
2021/12/19 04:00:23;;;;;;;;;32.67;22.67;;;;;5.63;100.00;103041.00;5019414;28;45422;-78
2021/12/19 04:02:55;;;;;;;;;31.67;25.67;;;;;5.63;100.00;103017.25;5018247;28;45465;-80
2021/12/19 04:05:22;;;;;;;;;31.00;27.67;;;;;5.61;100.00;103024.31;5018638;28;44781;-80
2021/12/19 04:07:48;;;;;;;;;34.67;26.00;;;;;5.57;100.00;103012.06;5017918;28;45233;-79
2021/12/19 04:10:14;;;;;;;;;37.67;30.33;;;;;5.61;100.00;103019.06;5017813;28;45411;-80
2021/12/19 04:12:42;;;;;;;;;33.33;22.33;;;;;5.67;100.00;103019.00;5018228;28;45379;-79
2021/12/19 04:15:09;;;;;;;;;34.33;30.00;;;;;5.71;100.00;103017.19;5018721;28;45257;-80
2021/12/19 04:17:34;;;;;;;;;32.67;27.00;;;;;5.74;100.00;103017.16;5024362;28;45224;-79
2021/12/19 04:20:00;;;;;;;;;27.00;24.33;;;;;5.78;100.00;103013.59;5023387;28;45270;-80
2021/12/19 04:22:25;;;;;;;;;40.67;33.67;;;;;5.75;100.00;103010.97;5017991;28;45204;-80
2021/12/19 04:24:51;;;;;;;;;31.33;27.33;;;;;5.77;100.00;103015.38;5017446;28;45414;-81
2021/12/19 04:27:16;;;;;;;;;38.67;29.67;;;;;5.80;100.00;103011.81;5016152;28;45550;-80
2021/12/19 04:29:42;;;;;;;;;30.33;26.67;;;;;5.83;100.00;103001.25;5016018;28;45537;-80
2021/12/19 04:32:08;;;;;;;;;26.33;18.00;;;;;5.85;100.00;102992.44;5017267;28;45320;-79
2021/12/19 04:34:34;;;;;;;;;25.75;20.25;;;;;5.83;100.00;102993.31;5016140;28;45327;-80
2021/12/19 04:37:08;;;;;;;;;30.67;22.00;;;;;5.80;100.00;102994.25;5017324;28;45526;-81
2021/12/19 04:39:56;;;;;;;;;31.00;24.33;;;;;5.75;100.00;102981.97;5016603;28;45460;-80
2021/12/19 05:03:56;;;;;;;;;24.25;18.75;;;;;5.65;100.00;102983.81;5025519;28;45432;-80
2021/12/19 05:06:47;;;;;;;;;22.25;16.50;;;;;5.66;100.00;102975.06;5017697;28;45432;-80
2021/12/19 05:14:56;;;;;;;;;21.00;19.75;;;;;5.75;100.00;102977.56;5037751;28;44885;-80
2021/12/19 05:17:26;;;;;;;;;26.75;20.75;;;;;5.75;100.00;102976.69;5054317;28;45792;-78
2021/12/19 05:20:06;;;;;;;;;25.50;17.75;;;;;5.77;100.00;102972.31;5052049;28;45318;-81
2021/12/19 05:22:36;;;;;;;;;16.50;14.50;;;;;5.73;100.00;102971.44;5046806;28;45201;-79
2021/12/19 05:25:14;;;;;;;;;22.00;16.75;;;;;5.68;100.00;102968.00;5046754;28;44889;-78
2021/12/19 05:27:51;;;;;;;;;25.25;18.00;;;;;5.64;100.00;102964.50;5025483;28;45375;-80
2021/12/19 05:30:18;;;;;;;;;17.25;16.25;;;;;5.58;100.00;102961.06;5035998;28;44851;-78
2021/12/19 05:32:46;;;;;;;;;19.25;15.00;;;;;5.46;100.00;102972.59;5036896;28;45333;-79
2021/12/19 05:35:16;;;;;;;;;12.75;12.50;;;;;5.46;100.00;102971.72;5035580;28;44916;-79
2021/12/19 05:45:54;;;;;;;;;19.50;15.00;;;;;5.44;100.00;102969.09;5030910;28;44817;-79
2021/12/19 05:48:20;;;;;;;;;17.50;14.75;;;;;5.47;100.00;102974.38;5020533;28;44838;-79
2021/12/19 05:50:45;;;;;;;;;17.75;17.00;;;;;5.51;100.00;102972.56;5016005;28;44781;-78
2021/12/19 05:53:11;;;;;;;;;12.00;10.00;;;;;5.51;100.00;102978.72;5015868;28;45351;-78
2021/12/19 05:55:39;;;;;;;;;14.75;14.75;;;;;5.53;100.00;102970.78;5014733;28;44735;-77
2021/12/19 05:58:04;;;;;;;;;13.75;12.25;;;;;5.56;100.00;102969.00;5015945;28;45523;-80
2021/12/19 06:00:32;;;;;;;;;14.50;14.50;;;;;5.56;100.00;102965.47;5016711;28;45415;-78
2021/12/19 06:02:58;;;;;;;;;18.25;18.25;;;;;5.54;100.00;102961.97;5016346;28;45602;-78
2021/12/19 06:05:24;;;;;;;;;15.50;14.25;;;;;5.56;100.00;102962.81;5015826;28;44758;-78
2021/12/19 06:07:49;;;;;;;;;33.00;27.00;;;;;5.54;100.00;102964.63;5017288;28;44721;-78
2021/12/19 06:10:15;;;;;;;;;13.25;12.25;;;;;5.54;100.00;102961.97;5016555;28;44718;-79
2021/12/19 06:12:42;;;;;;;;;22.50;21.00;;;;;5.52;100.00;102967.28;5014961;28;46593;-79
2021/12/19 06:15:09;;;;;;;;;13.75;13.50;;;;;5.55;100.00;102963.72;5016598;28;44757;-79
2021/12/19 06:17:39;;;;;;;;;9.50;8.75;;;;;5.47;100.00;102939.22;5017173;28;44835;-79
2021/12/19 06:20:05;;;;;;;;;13.50;10.50;;;;;5.44;100.00;102955.06;5020567;28;45360;-80
2021/12/19 06:22:30;;;;;;;;;12.25;11.25;;;;;5.38;100.00;102958.63;5019195;28;45331;-80
2021/12/19 06:24:56;;;;;;;;;18.25;12.75;;;;;5.35;100.00;102958.66;5020422;28;45366;-79
2021/12/19 06:27:22;;;;;;;;;10.75;8.50;;;;;5.31;100.00;102949.91;5023878;28;44774;-79
2021/12/19 06:29:49;;;;;;;;;17.75;12.50;;;;;5.26;100.00;102945.56;5026253;28;45233;-80
2021/12/19 06:32:16;;;;;;;;;19.00;17.75;;;;;5.28;100.00;102957.84;5020310;28;45420;-79
2021/12/19 06:34:42;;;;;;;;;15.00;12.75;;;;;5.28;100.00;102954.34;5020504;28;45384;-79
2021/12/19 06:37:09;;;;;;;;;16.00;14.50;;;;;5.28;100.00;102956.97;5019082;28;45311;-78
2021/12/19 06:39:36;;;;;;;;;16.75;12.75;;;;;5.30;100.00;102950.78;5019546;28;45539;-79
2021/12/19 06:42:03;;;;;;;;;13.25;12.50;;;;;5.34;100.00;102954.28;5019079;28;45330;-78
2021/12/19 06:44:28;;;;;;;;;16.25;12.00;;;;;5.37;100.00;102949.84;5019044;28;44764;-79
2021/12/19 06:46:54;;;;;;;;;13.25;12.25;;;;;5.38;100.00;102948.09;5019731;28;45407;-81
2021/12/19 06:49:19;;;;;;;;;9.75;9.75;;;;;5.38;100.00;102953.38;5018806;28;45394;-80
2021/12/19 06:51:44;;;;;;;;;9.75;5.50;;;;;5.30;100.00;102950.78;5019839;28;45289;-86
2021/12/19 06:54:10;;;;;;;;;9.75;9.75;;;;;5.25;100.00;102949.09;5020036;28;45276;-84
2021/12/19 06:56:36;;;;;;;;;18.25;14.50;;;;;5.20;100.00;102940.34;5019293;28;45028;-84
2021/12/19 06:59:03;;;;;;;;;17.25;15.50;;;;;5.21;100.00;102952.63;5021923;28;45266;-84
2021/12/19 07:01:28;;;;;;;;;11.25;11.25;;;;;5.19;100.00;102949.16;5025284;28;45234;-85
2021/12/19 07:03:54;;;;;;;;;14.00;12.25;;;;;5.17;100.00;102967.59;5053758;28;44784;-86
2021/12/19 07:06:19;;;;;;;;;19.50;15.50;;;;;5.10;100.00;102961.50;5038433;28;44710;-85
2021/12/19 07:08:51;;;;;;;;;19.50;16.25;;;;;5.09;100.00;102966.81;5043386;28;44884;-87
2021/12/19 07:11:19;;;;;;;;;9.75;8.75;;;;;5.09;100.00;102969.44;5040614;28;45337;-85
2021/12/19 07:13:45;;;;;;;;;12.75;9.75;;;;;5.08;100.00;102963.28;5042304;28;44668;-86
2021/12/19 07:16:18;;;;;;;;;12.00;10.00;;;;;5.13;100.00;102971.16;5043599;28;44749;-85
2021/12/19 07:18:44;;;;;;;;;14.25;10.50;;;;;5.08;100.00;102971.19;5034989;28;44936;-85
2021/12/19 07:21:10;;;;;;;;;14.50;8.75;;;;;5.09;100.00;102965.03;5038472;28;45915;-86
2021/12/19 07:23:36;;;;;;;;;12.00;10.25;;;;;5.14;100.00;102965.00;5036443;28;44738;-84
2021/12/19 07:26:03;;;;;;;;;10.67;9.67;;;;;5.14;100.00;102957.09;5031455;28;44824;-84
2021/12/19 07:28:28;;;;;;;;;10.50;9.50;;;;;5.16;100.00;102963.22;5023511;28;45145;-86
2021/12/19 07:30:56;;;;;;;;;16.75;14.25;;;;;5.13;100.00;102952.72;5020598;28;45249;-86
2021/12/19 07:33:21;;;;;;;;;16.50;15.50;;;;;5.13;100.00;102944.81;5020397;28;44793;-85
2021/12/19 07:35:48;;;;;;;;;15.25;12.50;;;;;5.19;100.00;102952.66;5037517;28;45224;-85
2021/12/19 07:38:22;;;;;;;;;12.75;12.75;;;;;5.18;100.00;102948.28;5023578;28;44847;-85
2021/12/19 07:40:50;;;;;;;;;15.75;15.50;;;;;5.22;100.00;102949.09;5023292;28;45621;-85
2021/12/19 07:43:17;;;;;;;;;21.00;14.25;;;;;5.23;100.00;102948.25;5026412;28;44839;-86
2021/12/19 07:45:43;;;;;;;;;18.00;14.75;;;;;5.23;100.00;102950.88;5029235;28;44852;-86
2021/12/19 07:48:08;;;;;;;;;19.50;16.00;;;;;5.25;100.00;102949.97;5020126;28;44823;-85
2021/12/19 07:50:35;;;;;;;;;17.50;13.75;;;;;5.29;100.00;102942.91;5019554;28;45429;-88
2021/12/19 07:53:03;;;;;;;;;14.25;11.75;;;;;5.26;100.00;102946.44;5023922;28;44812;-89
2021/12/19 07:55:29;;;;;;;;;6.50;6.50;;;;;5.20;100.00;102935.09;5024357;28;45388;-86
2021/12/19 07:57:55;;;;;;;;;13.00;12.00;;;;;5.15;100.00;102943.91;5021595;28;45241;-84
2021/12/19 08:00:20;;;;;;;;;8.50;5.50;;;;;5.15;100.00;102937.75;5025149;28;45057;-84
2021/12/19 08:02:47;;;;;;;;;14.50;11.25;;;;;5.16;100.00;102943.00;5022675;28;44958;-83
2021/12/19 08:05:13;;;;;;;;;11.00;8.75;;;;;5.16;100.00;102955.31;5039151;28;44781;-84
2021/12/19 08:07:40;;;;;;;;;10.25;5.75;;;;;5.13;100.00;102944.81;5043576;28;44864;-84
2021/12/19 08:12:44;;;;;;;;;15.25;15.25;;;;;5.12;100.00;102954.44;5022043;28;45352;-84
2021/12/19 08:15:11;;;;;;;;;14.00;11.75;;;;;5.13;100.00;102955.34;5019143;28;45362;-83
2021/12/19 08:17:38;;;;;;;;;10.25;10.00;;;;;5.14;100.00;102950.06;5019443;28;45452;-85
2021/12/19 08:20:06;;;;;;;;;15.00;11.00;;;;;5.20;100.00;102956.16;5023515;28;45456;-85
2021/12/19 08:22:33;;;;;;;;;37.33;35.00;;;;;5.21;100.00;102948.22;5026532;28;45312;-85
2021/12/19 08:24:59;;;;;;;;;23.67;18.33;;;;;5.12;100.00;102938.63;5029680;28;44671;-84
2021/12/19 08:27:25;;;;;;;;;16.33;15.33;;;;;5.09;100.00;102953.63;5027956;28;45126;-85
2021/12/19 08:29:53;;;;;;;;;20.00;18.00;;;;;5.07;100.00;102947.47;5030269;28;45001;-85
2021/12/19 08:32:20;;;;;;;;;14.00;14.00;;;;;5.09;100.00;102941.31;5022031;28;45269;-84
2021/12/19 08:34:46;;;;;;;;;15.00;15.00;;;;;5.11;100.00;102933.41;5022677;28;44849;-83
2021/12/19 08:37:11;;;;;;;;;10.50;10.50;;;;;5.11;100.00;102947.44;5021795;28;44906;-83
2021/12/19 08:39:38;;;;;;;;;17.25;15.25;;;;;5.06;100.00;102943.09;5020909;28;44986;-84
2021/12/19 08:42:06;;;;;;;;;17.00;14.25;;;;;5.07;100.00;102942.22;5020741;28;45317;-84
2021/12/19 08:44:32;;;;;;;;;29.75;22.25;;;;;5.09;100.00;102945.72;5038523;28;44804;-87
2021/12/19 08:46:57;;;;;;;;;19.67;18.67;;;;;5.10;100.00;102936.94;5038099;28;44888;-87
2021/12/19 08:49:23;;;;;;;;;23.00;19.00;;;;;5.06;100.00;102937.84;5038119;28;45253;-90
2021/12/19 08:51:48;;;;;;;;;10.75;8.75;;;;;5.09;100.00;102940.47;5024730;28;44712;-88
2021/12/19 08:54:14;;;;;;;;;15.25;12.50;;;;;5.10;100.00;102939.56;5018634;28;45463;-89
2021/12/19 08:56:39;;;;;;;;;22.67;22.67;;;;;5.03;100.00;102946.66;5017705;28;44867;-87
2021/12/19 08:59:05;;;;;;;;;28.67;27.33;;;;;5.05;100.00;102938.72;5019069;28;45289;-90
2021/12/19 09:01:31;;;;;;;;;18.75;17.00;;;;;5.10;100.00;102943.06;5020923;28;44809;-87
2021/12/19 09:03:57;;;;;;;;;21.67;20.33;;;;;5.12;100.00;102950.94;5023899;28;44765;-87
2021/12/19 09:06:23;;;;;;;;;23.75;17.75;;;;;5.09;100.00;102941.31;5028518;28;44941;-87
2021/12/19 09:08:48;;;;;;;;;21.00;19.50;;;;;5.12;100.00;102943.91;5028883;28;46761;-86
2021/12/19 09:11:14;;;;;;;;;23.00;16.00;;;;;5.09;100.00;102941.31;5030885;28;45285;-87
2021/12/19 09:13:45;;;;;;;;;16.50;11.50;;;;;5.08;100.00;102943.97;5029636;28;44742;-87
2021/12/19 09:16:11;;;;;;;;;26.67;21.33;;;;;5.11;100.00;102949.19;5023364;28;44801;-85
2021/12/19 09:18:38;;;;;;;;;23.00;23.00;;;;;5.16;100.00;102943.00;5024986;28;44906;-86
2021/12/19 09:21:03;;;;;;;;;29.67;25.67;;;;;5.21;100.00;102948.22;5022478;28;45343;-86
2021/12/19 09:23:29;;;;;;;;;23.75;21.75;;;;;5.27;100.00;102948.19;5020546;28;45377;-86
2021/12/19 09:25:55;;;;;;;;;18.50;17.50;;;;;5.30;100.00;102942.00;5021115;28;45064;-89
2021/12/19 09:28:20;;;;;;;;;21.75;17.25;;;;;5.32;100.00;102943.75;5020227;28;45281;-88
2021/12/19 09:30:46;;;;;;;;;20.25;12.00;;;;;5.27;100.00;102944.66;5022294;28;45154;-88
2021/12/19 09:33:11;;;;;;;;;20.00;17.67;;;;;5.27;100.00;102949.94;5022177;28;44777;-85
2021/12/19 09:35:37;;;;;;;;;11.00;7.00;;;;;5.24;100.00;102942.94;5020156;28;44914;-86
2021/12/19 09:38:05;;;;;;;;;15.50;12.25;;;;;5.24;100.00;102945.59;5020679;28;45208;-84
2021/12/19 09:40:36;;;;;;;;;12.00;11.00;;;;;5.19;100.00;102939.47;5026500;28;44793;-84
2021/12/19 09:43:05;;;;;;;;;16.00;16.00;;;;;5.20;100.00;102943.00;5023552;28;44837;-83
2021/12/19 09:45:33;;;;;;;;;17.50;15.50;;;;;5.23;100.00;102953.50;5021648;28;44837;-84
2021/12/19 09:47:58;;;;;;;;;27.33;22.00;;;;;5.22;100.00;102949.09;5021014;28;45966;-85
2021/12/19 09:50:24;;;;;;;;;17.25;16.00;;;;;5.24;100.00;102947.34;5021854;28;44770;-83
2021/12/19 09:52:50;;;;;;;;;14.00;11.50;;;;;5.29;100.00;102950.81;5025063;28;44854;-84
2021/12/19 09:55:21;;;;;;;;;17.67;16.67;;;;;5.28;100.00;102941.16;5021517;28;44746;-84
2021/12/19 09:57:48;;;;;;;;;18.75;13.50;;;;;5.23;100.00;102938.56;5037272;28;45446;-83
2021/12/19 10:00:14;;;;;;;;;13.67;12.33;;;;;5.23;100.00;102930.66;5017038;28;45519;-85
2021/12/19 10:02:39;;;;;;;;;20.00;17.33;;;;;5.19;100.00;102928.06;5018459;28;44827;-85
2021/12/19 10:05:19;;;;;;;;;41.33;30.33;;;;;5.23;100.00;102929.78;5018824;28;44858;-85
2021/12/19 10:07:47;;;;;;;;;19.00;11.50;;;;;5.20;100.00;102928.06;5018894;28;45144;-85
2021/12/19 10:10:23;;;;;;;;;33.67;27.33;;;;;5.21;100.00;102921.88;5021434;28;45487;-85
2021/12/19 10:12:53;;;;;;;;;30.67;27.67;;;;;5.32;100.00;102913.91;5026552;28;45210;-86
2021/12/19 10:15:28;;;;;;;;;26.00;25.00;;;;;5.39;100.00;102912.94;5024777;28;45336;-84
2021/12/19 10:18:15;;;;;;;;;23.00;17.00;;;;;5.43;100.00;102913.78;5019392;28;45244;-85
2021/12/19 10:20:51;;;;;;;;;12.75;9.00;;;;;5.48;100.00;102909.34;5017690;28;44781;-85
2021/12/19 10:23:25;;;;;;;;;21.25;16.50;;;;;5.56;100.00;102907.47;5016909;28;45359;-84
2021/12/19 10:25:57;;;;;;;;;15.75;12.25;;;;;5.65;100.00;102904.72;5019321;28;44783;-85
2021/12/19 10:28:23;;;;;;;;;15.25;12.50;;;;;5.68;100.00;102905.56;5018729;28;45402;-85
2021/12/19 10:30:49;;;;;;;;;13.75;12.00;;;;;5.61;100.00;102900.41;5020004;28;45293;-86
2021/12/19 10:33:21;;;;;;;;;13.00;11.75;;;;;5.55;100.00;102893.41;5019183;28;44760;-85
2021/12/19 10:35:51;;;;;;;;;15.75;15.50;;;;;5.46;100.00;102882.97;5022157;28;44832;-85
2021/12/19 10:38:30;;;;;;;;;13.25;11.75;;;;;5.45;100.00;102889.13;5019979;28;45102;-84
2021/12/19 10:41:07;;;;;;;;;14.50;12.75;;;;;5.51;100.00;102890.81;5021426;28;44876;-85
2021/12/19 10:43:33;;;;;;;;;17.75;13.25;;;;;5.60;100.00;102893.38;5031557;28;44747;-85
2021/12/19 10:46:03;;;;;;;;;16.50;14.25;;;;;5.71;100.00;102888.84;5038486;28;44850;-85
2021/12/19 10:48:30;;;;;;;;;15.75;12.00;;;;;5.79;100.00;102886.97;5037136;28;45317;-85
2021/12/19 10:51:02;;;;;;;;;41.33;31.00;;;;;5.87;100.00;102886.91;5037764;28;44780;-85
2021/12/19 10:53:39;;;;;;;;;28.67;25.67;;;;;5.91;100.00;102888.59;5036624;28;45514;-84
2021/12/19 10:56:30;;;;;;;;;22.00;17.75;;;;;5.88;100.00;102878.09;5035276;28;44758;-86
2021/12/19 10:58:58;;;;;;;;;18.50;15.00;;;;;5.88;100.00;102871.03;5040865;28;45419;-85
2021/12/19 11:01:25;;;;;;;;;24.33;22.67;;;;;5.86;100.00;102875.47;5049308;28;44832;-84
2021/12/19 11:03:56;;;;;;;;;19.00;14.00;;;;;5.76;100.00;102876.50;5045532;28;44938;-85
2021/12/19 11:06:41;;;;;;;;;24.75;17.00;;;;;5.65;100.00;102870.44;5039634;28;45232;-85
2021/12/19 11:09:17;;;;;;;;;31.67;28.33;;;;;5.66;100.00;102872.22;5043821;28;45727;-84
2021/12/19 11:11:49;;;;;;;;;30.33;23.00;;;;;5.71;100.00;102874.81;5044072;28;44762;-86
2021/12/19 11:14:27;;;;;;;;;21.00;19.50;;;;;5.71;100.00;102865.13;5045023;28;45318;-84
2021/12/19 11:17:02;;;;;;;;;32.00;25.67;;;;;5.77;100.00;102866.81;5046268;28;44821;-85
2021/12/19 11:19:28;;;;;;;;;17.33;14.67;;;;;5.76;100.00;102859.78;5048556;28;45116;-85
2021/12/19 11:21:54;;;;;;;;;27.67;25.00;;;;;5.75;100.00;102856.25;5046557;28;45409;-84
2021/12/19 11:24:21;;;;;;;;;27.00;23.33;;;;;5.78;100.00;102845.69;5048119;28;44853;-84
2021/12/19 11:26:50;;;;;;;;;27.00;23.00;;;;;5.85;100.00;102841.19;5045128;28;45303;-84
2021/12/19 11:29:17;;;;;;;;;32.67;30.33;;;;;5.98;100.00;102834.88;5040977;28;45270;-85
2021/12/19 11:31:46;;;;;;;;;22.33;20.00;;;;;5.96;100.00;102828.78;5039777;28;45467;-84
2021/12/19 11:34:30;;;;;;;;;20.33;16.33;;;;;6.04;100.00;102829.50;5055620;28;45288;-86
2021/12/19 11:37:11;;;;;;;;;39.00;35.67;;;;;6.02;100.00;102825.19;5039488;28;45158;-83
2021/12/19 11:39:41;;;;;;;;;34.00;25.67;;;;;5.90;100.00;102828.84;5038916;28;45356;-85
2021/12/19 11:42:07;;;;;;;;;42.67;32.33;;;;;5.90;100.00;102819.16;5039378;28;45370;-82
2021/12/19 11:45:20;;;;;;;;;34.67;24.67;;;;;5.84;100.00;102819.22;5039564;28;45499;-84
2021/12/19 11:47:42;;;;;;;;;28.67;22.33;;;;;5.96;100.00;102815.59;5041117;28;44793;-86
2021/12/19 11:50:22;;;;;;;;;25.50;18.25;;;;;5.92;100.00;102805.97;5042943;28;45582;-85
2021/12/19 11:52:49;;;;;;;;;29.25;22.50;;;;;5.87;100.00;102800.72;5041392;28;44824;-84
2021/12/19 11:55:14;;;;;;;;;23.75;19.25;;;;;5.83;100.00;102801.66;5041268;28;44844;-83
2021/12/19 11:58:08;;;;;;;;;32.00;30.00;;;;;5.85;100.00;102791.97;5043579;28;45395;-84
2021/12/19 12:00:39;;;;;;;;;21.00;19.00;;;;;5.88;100.00;102783.13;5058336;28;45270;-85
2021/12/19 12:03:13;;;;;;;;;21.00;20.33;;;;;5.97;100.00;102790.94;5044089;28;44742;-86
2021/12/19 12:05:43;;;;;;;;;22.00;18.75;;;;;5.99;100.00;102781.22;5043898;28;44736;-85
2021/12/19 12:08:09;;;;;;;;;37.00;33.67;;;;;5.97;100.00;102776.88;5046842;28;44762;-85
2021/12/19 12:13:22;;;;;;;;;27.67;26.33;;;;;6.12;100.00;102774.00;5041316;28;45316;-84
2021/12/19 12:15:51;;;;;;;;;26.67;24.33;;;;;6.15;100.00;102774.84;5041664;28;44757;-89
2021/12/19 12:18:42;;;;;;;;;26.75;23.00;;;;;6.27;100.00;102771.13;5047024;28;44899;-88